Time;durP1;ratioP1;P1;durP2;ratioP2;P2;SDS_P1;SDS_P2;PMS_P1;PMS_P2;Temp;Humidity;BMP_temperature;BMP_pressure;BME280_temperature;BME280_humidity;BME280_pressure;Samples;Min_cycle;Max_cycle;Signal;HPM_P1;HPM_P2
2021/08/30 00:00:26;;;;;;;;;;;;;;;20.56;62.63;101042.25;4973810;28;96826;-73
2021/08/30 00:02:52;;;;;;;;;;;;;;;20.51;62.77;101044.41;4977141;28;98977;-73
2021/08/30 00:05:18;;;;;;;;;;;;;;;20.57;62.83;101047.50;4975587;28;97627;-74
2021/08/30 00:07:45;;;;;;;;;;;;;;;20.56;62.72;101040.41;4975924;28;97207;-73
2021/08/30 00:10:14;;;;;;;;;;;;;;;20.69;62.20;101051.13;4975161;28;96884;-73
2021/08/30 00:12:42;;;;;;;;;;;;;;;20.46;62.48;101054.63;4975893;28;97635;-72
2021/08/30 00:15:09;;;;;;;;;;;;;;;20.57;62.31;101057.38;4978968;28;99208;-73
2021/08/30 00:17:35;;;;;;;;;;;;;;;20.43;62.87;101054.84;4978059;28;97314;-73
2021/08/30 00:20:04;;;;;;;;;;;;;;;20.41;62.83;101062.16;4981144;28;96873;-73
2021/08/30 00:22:30;;;;;;;;;;;;;;;20.47;62.72;101056.34;4978683;28;97704;-73
2021/08/30 00:24:56;;;;;;;;;;;;;;;20.41;62.73;101048.75;4980480;28;97758;-73
2021/08/30 00:27:31;;;;;;;;;;;;;;;20.47;62.61;101050.97;4977413;28;96911;-72
2021/08/30 00:29:59;;;;;;;;;;;;;;;20.38;62.81;101052.50;4973072;28;96753;-72
2021/08/30 00:32:25;;;;;;;;;;;;;;;20.22;63.41;101058.03;4979056;28;98142;-73
2021/08/30 00:34:52;;;;;;;;;;;;;;;20.18;63.71;101071.78;4985785;28;98984;-73
2021/08/30 00:37:18;;;;;;;;;;;;;;;20.32;63.51;101065.44;4982916;28;98634;-73
2021/08/30 00:39:44;;;;;;;;;;;;;;;20.38;63.46;101054.31;4982844;28;96925;-73
2021/08/30 00:42:11;;;;;;;;;;;;;;;20.34;63.44;101059.06;4976621;28;99130;-73
2021/08/30 00:44:38;;;;;;;;;;;;;;;20.10;64.34;101069.63;4978320;28;99090;-72
2021/08/30 00:47:05;;;;;;;;;;;;;;;20.14;64.19;101063.13;4980682;28;96979;-73
2021/08/30 00:49:31;;;;;;;;;;;;;;;20.24;64.05;101061.47;4978946;28;96873;-73
2021/08/30 00:51:58;;;;;;;;;;;;;;;20.16;64.01;101055.78;4976319;28;99018;-73
2021/08/30 00:54:25;;;;;;;;;;;;;;;19.92;65.21;101060.19;4979037;28;97715;-73
2021/08/30 00:56:51;;;;;;;;;;;;;;;20.11;65.04;101059.78;4975859;28;96850;-73
2021/08/30 00:59:18;;;;;;;;;;;;;;;20.47;63.13;101061.72;4981877;28;97073;-74
2021/08/30 01:01:48;;;;;;;;;;;;;;;20.11;64.66;101060.63;4980304;28;98933;-73
2021/08/30 01:04:14;;;;;;;;;;;;;;;20.22;64.14;101066.09;4980450;28;98838;-72
2021/08/30 01:06:43;;;;;;;;;;;;;;;19.78;65.88;101063.81;4982137;28;97762;-72
2021/08/30 01:09:13;;;;;;;;;;;;;;;20.33;63.75;101064.53;4982373;28;96808;-74
2021/08/30 01:11:41;;;;;;;;;;;;;;;20.36;63.30;101067.84;4980460;28;97523;-73
2021/08/30 01:14:08;;;;;;;;;;;;;;;20.49;62.69;101076.72;4956948;28;98981;-73
2021/08/30 01:16:36;;;;;;;;;;;;;;;20.34;62.71;101075.16;4970000;28;96838;-73
2021/08/30 01:19:05;;;;;;;;;;;;;;;20.27;63.13;101082.75;4971158;28;97343;-73
2021/08/30 01:21:33;;;;;;;;;;;;;;;19.63;65.86;101078.28;4982446;28;101345;-73
2021/08/30 01:24:03;;;;;;;;;;;;;;;19.64;65.35;101071.94;4981145;28;98939;-73
2021/08/30 01:26:30;;;;;;;;;;;;;;;19.38;65.69;101075.50;4982422;28;96706;-73
2021/08/30 01:29:02;;;;;;;;;;;;;;;19.69;65.38;101069.81;4976541;28;97110;-73
2021/08/30 01:31:34;;;;;;;;;;;;;;;20.21;62.83;101072.44;4978832;28;97884;-73
2021/08/30 01:34:01;;;;;;;;;;;;;;;20.35;62.74;101074.16;4977494;28;97912;-73
2021/08/30 01:36:29;;;;;;;;;;;;;;;20.49;62.26;101081.22;4976031;28;96839;-73
2021/08/30 01:38:59;;;;;;;;;;;;;;;20.35;62.55;101065.28;4976844;28;96792;-73
2021/08/30 01:41:25;;;;;;;;;;;;;;;19.98;63.52;101070.50;4977640;28;97873;-72
2021/08/30 01:43:53;;;;;;;;;;;;;;;19.95;63.63;101067.19;4972477;28;99155;-73
2021/08/30 01:46:19;;;;;;;;;;;;;;;20.11;62.34;101066.00;4974223;28;96904;-73
2021/08/30 01:48:49;;;;;;;;;;;;;;;20.04;63.43;101070.06;4974843;28;98812;-73
2021/08/30 01:51:19;;;;;;;;;;;;;;;19.49;65.38;101073.84;4972344;28;99268;-73
2021/08/30 01:53:46;;;;;;;;;;;;;;;19.34;66.00;101079.34;4977920;28;98810;-72
2021/08/30 01:56:14;;;;;;;;;;;;;;;19.46;65.50;101074.06;4978115;28;97289;-73
2021/08/30 02:01:25;;;;;;;;;;;;;;;19.58;64.62;101074.19;4957912;28;96562;-73
2021/08/30 02:03:51;;;;;;;;;;;;;;;20.04;62.96;101072.75;4976121;28;98876;-73
2021/08/30 02:06:19;;;;;;;;;;;;;;;20.05;62.95;101073.63;4975227;28;96839;-72
2021/08/30 02:08:45;;;;;;;;;;;;;;;19.63;63.84;101074.72;4974419;28;96937;-74
2021/08/30 02:11:17;;;;;;;;;;;;;;;19.65;63.68;101072.81;4973130;28;99358;-74
2021/08/30 02:13:43;;;;;;;;;;;;;;;19.85;63.39;101069.63;4956984;28;98786;-74
2021/08/30 02:16:09;;;;;;;;;;;;;;;20.11;62.73;101074.03;4973093;28;96664;-73
2021/08/30 02:18:38;;;;;;;;;;;;;;;20.27;61.59;101080.06;4975544;28;96981;-74
2021/08/30 02:21:12;;;;;;;;;;;;;;;19.97;62.41;101074.13;4973833;28;98911;-74
2021/08/30 02:23:45;;;;;;;;;;;;;;;19.53;64.42;101079.00;4972752;28;97860;-73
2021/08/30 02:26:13;;;;;;;;;;;;;;;19.93;63.44;101078.00;4973834;28;96791;-74
2021/08/30 02:28:41;;;;;;;;;;;;;;;20.24;62.28;101074.03;4971582;28;97097;-73
2021/08/30 02:31:08;;;;;;;;;;;;;;;19.75;62.66;101085.50;4971807;28;98989;-73
2021/08/30 02:33:35;;;;;;;;;;;;;;;19.48;63.95;101088.22;4971640;28;99436;-73
2021/08/30 02:36:03;;;;;;;;;;;;;;;19.88;62.46;101081.03;4972617;28;97026;-74
2021/08/30 02:38:30;;;;;;;;;;;;;;;20.11;61.92;101083.91;4972843;28;97184;-74
2021/08/30 02:40:59;;;;;;;;;;;;;;;20.25;61.30;101086.50;4973186;28;98908;-73
2021/08/30 02:43:26;;;;;;;;;;;;;;;20.29;60.85;101082.63;4972340;28;99237;-74
2021/08/30 02:45:53;;;;;;;;;;;;;;;20.22;61.35;101084.00;4972526;28;96775;-74
2021/08/30 02:48:20;;;;;;;;;;;;;;;20.37;60.82;101079.44;4970394;28;96965;-74
2021/08/30 02:50:46;;;;;;;;;;;;;;;20.13;62.18;101084.69;4971960;28;98881;-73
2021/08/30 02:53:14;;;;;;;;;;;;;;;20.17;62.02;101086.16;4973006;28;98952;-73
2021/08/30 02:55:40;;;;;;;;;;;;;;;20.20;61.77;101085.97;4972991;28;96999;-73
2021/08/30 02:58:08;;;;;;;;;;;;;;;20.34;61.49;101082.34;4970612;28;98628;-74
2021/08/30 03:00:35;;;;;;;;;;;;;;;20.29;61.78;101082.63;4972876;28;99060;-73
2021/08/30 03:03:02;;;;;;;;;;;;;;;20.36;61.19;101080.38;4970357;28;98174;-73
2021/08/30 03:05:28;;;;;;;;;;;;;;;20.04;62.01;101080.78;4971870;28;96973;-74
2021/08/30 03:07:58;;;;;;;;;;;;;;;20.09;62.09;101078.66;4971980;28;96845;-73
2021/08/30 03:10:24;;;;;;;;;;;;;;;20.25;61.55;101076.63;4973129;28;98977;-73
2021/08/30 03:12:53;;;;;;;;;;;;;;;20.27;61.70;101082.75;4975273;28;98971;-73
2021/08/30 03:15:23;;;;;;;;;;;;;;;20.19;nan;101082.41;4973085;28;96737;-73
2021/08/30 03:17:51;;;;;;;;;;;;;;;19.99;62.35;101088.31;4973857;28;96865;-73
2021/08/30 03:20:19;;;;;;;;;;;;;;;20.04;62.11;101090.66;4974581;28;98955;-73
2021/08/30 03:22:47;;;;;;;;;;;;;;;19.58;63.58;101090.28;4973562;28;99136;-72
2021/08/30 03:25:15;;;;;;;;;;;;;;;20.02;62.24;101090.75;4971522;28;96884;-72
2021/08/30 03:27:42;;;;;;;;;;;;;;;20.14;61.70;101083.72;4971941;28;96834;-73
2021/08/30 03:30:10;;;;;;;;;;;;;;;20.07;62.24;101096.69;4973424;28;97837;-73
2021/08/30 03:32:38;;;;;;;;;;;;;;;20.13;61.96;101095.41;4973720;28;98873;-73
2021/08/30 03:35:06;;;;;;;;;;;;;;;20.25;61.51;101100.78;4972234;28;98472;-74
2021/08/30 03:37:32;;;;;;;;;;;;;;;20.39;61.13;101090.91;4972538;28;96839;-73
2021/08/30 03:40:02;;;;;;;;;;;;;;;20.34;61.42;101093.06;4967794;28;98935;-73
2021/08/30 03:42:29;;;;;;;;;;;;;;;20.24;62.03;101096.38;4970809;28;99088;-74
2021/08/30 03:44:57;;;;;;;;;;;;;;;20.29;62.00;101094.22;4970799;28;99249;-73
2021/08/30 03:47:23;;;;;;;;;;;;;;;20.25;61.80;101084.66;4972589;28;96883;-74
2021/08/30 03:49:51;;;;;;;;;;;;;;;20.24;62.31;101092.81;4974486;28;99313;-72
2021/08/30 03:52:17;;;;;;;;;;;;;;;20.33;61.60;101091.34;4975043;28;99321;-73
2021/08/30 03:54:44;;;;;;;;;;;;;;;20.13;61.93;101090.91;4974561;28;97617;-73
2021/08/30 03:57:13;;;;;;;;;;;;;;;20.18;62.15;101091.44;4980634;28;98208;-73
2021/08/30 03:59:40;;;;;;;;;;;;;;;20.22;61.84;101095.59;4985006;28;100063;-74
2021/08/30 04:02:07;;;;;;;;;;;;;;;20.26;61.95;101094.44;4987290;28;97803;-73
2021/08/30 04:04:35;;;;;;;;;;;;;;;20.29;61.53;101096.88;4987208;28;97046;-72
2021/08/30 04:07:04;;;;;;;;;;;;;;;20.25;62.34;101094.53;4990100;28;96777;-71
2021/08/30 04:09:30;;;;;;;;;;;;;;;20.28;61.79;101105.06;4989335;28;99790;-72
2021/08/30 04:11:57;;;;;;;;;;;;;;;20.39;62.02;101104.34;4983307;28;97021;-72
2021/08/30 04:14:23;;;;;;;;;;;;;;;20.45;61.77;101111.97;4970394;28;96803;-71
2021/08/30 04:16:50;;;;;;;;;;;;;;;20.50;61.12;101110.66;4983357;28;96807;-72
2021/08/30 04:19:16;;;;;;;;;;;;;;;20.46;62.02;101109.16;4987973;28;98130;-72
2021/08/30 04:21:42;;;;;;;;;;;;;;;20.46;61.61;101103.81;4984545;28;99276;-72
2021/08/30 04:24:10;;;;;;;;;;;;;;;20.50;61.84;101107.13;4981008;28;96746;-72
2021/08/30 04:26:37;;;;;;;;;;;;;;;20.50;62.15;101101.75;4975474;28;98631;-73
2021/08/30 04:29:03;;;;;;;;;;;;;;;20.55;61.80;101107.63;4975856;28;98989;-73
2021/08/30 04:31:29;;;;;;;;;;;;;;;20.40;62.12;101103.38;4974428;28;97623;-72
2021/08/30 04:33:56;;;;;;;;;;;;;;;20.53;62.03;101101.53;4976408;28;97590;-73
2021/08/30 04:36:22;;;;;;;;;;;;;;;20.46;62.21;101103.81;4980573;28;96772;-73
2021/08/30 04:38:48;;;;;;;;;;;;;;;20.40;61.50;101106.94;4957846;28;98227;-71
2021/08/30 04:41:16;;;;;;;;;;;;;;;20.43;61.74;101108.50;4977385;28;98900;-74
2021/08/30 04:43:43;;;;;;;;;;;;;;;20.46;61.90;101097.56;4976488;28;96881;-74
2021/08/30 04:46:09;;;;;;;;;;;;;;;20.46;61.74;101098.44;4976190;28;96930;-74
2021/08/30 04:48:35;;;;;;;;;;;;;;;20.17;62.47;101097.75;4972004;28;99160;-73
2021/08/30 04:51:02;;;;;;;;;;;;;;;20.46;61.83;101102.94;4975696;28;99322;-74
2021/08/30 04:53:28;;;;;;;;;;;;;;;20.35;62.48;101105.53;4971633;28;96931;-74
2021/08/30 04:55:54;;;;;;;;;;;;;;;20.42;62.22;101102.28;4976021;28;96990;-74
2021/08/30 04:58:22;;;;;;;;;;;;;;;20.40;62.75;101103.38;4972762;28;98990;-74
2021/08/30 05:00:48;;;;;;;;;;;;;;;20.19;63.49;101103.88;4974509;28;99125;-73
2021/08/30 05:03:15;;;;;;;;;;;;;;;20.19;63.41;101106.56;4974323;28;96863;-74
2021/08/30 05:05:41;;;;;;;;;;;;;;;20.29;63.31;101110.31;4975538;28;96798;-73
2021/08/30 05:08:07;;;;;;;;;;;;;;;20.36;63.20;101115.28;4971286;28;98903;-73
2021/08/30 05:10:34;;;;;;;;;;;;;;;20.39;63.14;101121.31;4974613;28;99211;-73
2021/08/30 05:13:00;;;;;;;;;;;;;;;20.36;63.16;101115.28;4973377;28;98895;-74
2021/08/30 05:15:27;;;;;;;;;;;;;;;20.54;62.86;101119.38;4975902;28;96865;-73
2021/08/30 05:17:54;;;;;;;;;;;;;;;20.42;63.16;101114.84;4977266;28;98978;-73
2021/08/30 05:20:20;;;;;;;;;;;;;;;20.41;63.59;101113.16;4975428;28;99171;-73
2021/08/30 05:22:46;;;;;;;;;;;;;;;20.52;62.38;101110.56;4973206;28;96681;-72
2021/08/30 05:25:13;;;;;;;;;;;;;;;20.53;62.63;101114.97;4974837;28;96802;-73
2021/08/30 05:27:41;;;;;;;;;;;;;;;20.53;62.99;101114.97;4973185;28;99413;-74
2021/08/30 05:30:07;;;;;;;;;;;;;;;20.39;63.73;101115.94;4975185;28;98884;-74
2021/08/30 05:32:35;;;;;;;;;;;;;;;20.58;63.35;101112.81;4973005;28;98892;-73
2021/08/30 05:35:01;;;;;;;;;;;;;;;20.55;63.36;101118.38;4974546;28;96997;-73
2021/08/30 05:37:27;;;;;;;;;;;;;;;20.24;63.58;101117.84;4966930;28;99621;-73
2021/08/30 05:39:53;;;;;;;;;;;;;;;20.16;64.49;101120.19;4974004;28;98939;-73
2021/08/30 05:42:20;;;;;;;;;;;;;;;20.50;63.27;101115.16;4974499;28;96694;-73
2021/08/30 05:44:46;;;;;;;;;;;;;;;20.65;62.88;101120.31;4973534;28;96871;-74
2021/08/30 05:47:12;;;;;;;;;;;;;;;20.45;63.47;101120.00;4973189;28;98888;-73
2021/08/30 05:49:40;;;;;;;;;;;;;;;20.63;63.00;101132.13;4970534;28;99381;-73
2021/08/30 05:52:07;;;;;;;;;;;;;;;20.59;63.53;101125.25;4973024;28;98153;-73
2021/08/30 05:54:33;;;;;;;;;;;;;;;20.49;64.24;101124.19;4974453;28;96830;-73
2021/08/30 05:56:59;;;;;;;;;;;;;;;20.78;62.87;101125.66;4972788;28;98953;-74
2021/08/30 05:59:26;;;;;;;;;;;;;;;20.57;63.62;101127.19;4973330;28;98845;-73
2021/08/30 06:01:53;;;;;;;;;;;;;;;20.69;63.79;101129.00;4971429;28;96815;-73
2021/08/30 06:04:19;;;;;;;;;;;;;;;20.71;63.06;101131.56;4974146;28;96863;-73
2021/08/30 06:06:47;;;;;;;;;;;;;;;20.82;62.90;101124.47;4972840;28;99371;-73
2021/08/30 06:09:13;;;;;;;;;;;;;;;20.88;62.48;101134.75;4969452;28;100473;-73
2021/08/30 06:11:40;;;;;;;;;;;;;;;20.77;63.48;101132.00;4971302;28;96940;-74
2021/08/30 06:14:06;;;;;;;;;;;;;;;21.15;62.22;101123.84;4974094;28;97356;-73
2021/08/30 06:16:32;;;;;;;;;;;;;;;21.09;62.65;101124.28;4972875;28;96989;-75
2021/08/30 06:18:59;;;;;;;;;;;;;;;20.47;64.22;101124.31;4974498;28;99227;-75
2021/08/30 06:21:25;;;;;;;;;;;;;;;20.76;63.29;101132.09;4974068;28;96895;-74
2021/08/30 06:23:53;;;;;;;;;;;;;;;20.90;63.28;101131.97;4974697;28;96989;-74
2021/08/30 06:26:19;;;;;;;;;;;;;;;20.10;66.12;101131.34;4973330;28;98977;-74
2021/08/30 06:28:45;;;;;;;;;;;;;;;20.58;64.67;101135.16;4972554;28;98776;-74
2021/08/30 06:31:11;;;;;;;;;;;;;;;20.70;64.17;101138.78;4971188;28;97020;-73
2021/08/30 06:33:38;;;;;;;;;;;;;;;20.30;65.40;101135.31;4972940;28;97702;-73
2021/08/30 06:36:04;;;;;;;;;;;;;;;20.20;65.45;101128.91;4956302;28;102187;-73
2021/08/30 06:38:31;;;;;;;;;;;;;;;20.01;66.33;101140.03;4961174;28;99006;-73
2021/08/30 06:40:58;;;;;;;;;;;;;;;20.11;65.41;101135.75;4974379;28;96676;-74
2021/08/30 06:43:25;;;;;;;;;;;;;;;20.60;64.40;101141.28;4969111;28;97789;-73
2021/08/30 06:45:51;;;;;;;;;;;;;;;21.11;62.88;101138.47;4973603;28;98893;-73
2021/08/30 06:48:17;;;;;;;;;;;;;;;20.98;63.27;101145.72;4974957;28;98165;-74
2021/08/30 06:50:43;;;;;;;;;;;;;;;20.96;62.82;101134.22;4973594;28;96835;-73
2021/08/30 06:53:11;;;;;;;;;;;;;;;20.79;62.64;101138.13;4972492;28;98535;-73
2021/08/30 06:55:37;;;;;;;;;;;;;;;21.23;61.91;101134.91;4973945;28;100871;-74
2021/08/30 06:58:05;;;;;;;;;;;;;;;21.02;62.65;101145.38;4967297;28;99314;-74
2021/08/30 07:00:31;;;;;;;;;;;;;;;21.26;62.25;101140.06;4973907;28;96790;-72
2021/08/30 07:02:57;;;;;;;;;;;;;;;20.90;61.78;101143.56;4971332;28;97240;-72
2021/08/30 07:05:24;;;;;;;;;;;;;;;21.08;61.47;101139.53;4974672;28;98963;-73
2021/08/30 07:07:50;;;;;;;;;;;;;;;21.31;61.01;101134.34;4969494;28;98603;-73
2021/08/30 07:10:16;;;;;;;;;;;;;;;21.20;61.22;101139.66;4971339;28;97217;-74
2021/08/30 07:12:43;;;;;;;;;;;;;;;21.41;60.41;101132.69;4969412;28;96859;-73
2021/08/30 07:15:11;;;;;;;;;;;;;;;21.09;61.85;101135.88;4968715;28;99257;-74
2021/08/30 07:17:37;;;;;;;;;;;;;;;21.07;61.71;101143.19;4971567;28;98794;-73
2021/08/30 07:20:04;;;;;;;;;;;;;;;21.27;61.47;101139.06;4971570;28;97045;-73
2021/08/30 07:22:30;;;;;;;;;;;;;;;21.41;60.57;101141.59;4975230;28;96899;-73
2021/08/30 07:24:56;;;;;;;;;;;;;;;20.72;62.30;101147.59;4973587;28;100630;-74
2021/08/30 07:27:24;;;;;;;;;;;;;;;20.74;62.76;101151.03;4971670;28;99326;-73
2021/08/30 07:29:51;;;;;;;;;;;;;;;20.86;61.78;101146.59;4972338;28;96911;-72
2021/08/30 07:32:20;;;;;;;;;;;;;;;20.96;61.77;101148.50;4971038;28;97154;-73
2021/08/30 07:34:46;;;;;;;;;;;;;;;20.97;62.29;101147.53;4953928;28;97864;-72
2021/08/30 07:37:13;;;;;;;;;;;;;;;21.21;60.95;101147.59;4954090;28;99140;-73
2021/08/30 07:39:39;;;;;;;;;;;;;;;21.62;59.92;101144.53;4973804;28;97119;-74
2021/08/30 07:42:05;;;;;;;;;;;;;;;21.58;59.84;101156.50;4977448;28;97212;-73
2021/08/30 07:44:32;;;;;;;;;;;;;;;21.48;60.38;101153.63;4975060;28;99636;-73
2021/08/30 07:46:58;;;;;;;;;;;;;;;21.74;59.44;101158.88;4976599;28;98826;-73
2021/08/30 07:49:25;;;;;;;;;;;;;;;21.91;58.83;101160.31;4975735;28;96893;-73
2021/08/30 07:51:52;;;;;;;;;;;;;;;21.28;60.83;101162.31;4977508;28;96879;-73
2021/08/30 07:54:18;;;;;;;;;;;;;;;21.16;61.36;101167.72;4976911;28;98926;-73
2021/08/30 07:56:44;;;;;;;;;;;;;;;21.40;60.49;101164.09;4977110;28;97966;-73
2021/08/30 07:59:11;;;;;;;;;;;;;;;21.50;60.40;101172.34;4975420;28;96885;-72
2021/08/30 08:01:37;;;;;;;;;;;;;;;21.53;60.31;101173.94;4975878;28;96831;-72
2021/08/30 08:04:04;;;;;;;;;;;;;;;21.74;59.43;101169.63;4960549;28;99260;-73
2021/08/30 08:06:31;;;;;;;;;;;;;;;21.53;59.69;101169.41;4961368;28;98831;-73
2021/08/30 08:08:58;;;;;;;;;;;;;;;21.43;60.26;101176.44;4974598;28;97205;-73
2021/08/30 08:11:24;;;;;;;;;;;;;;;21.53;59.78;101173.94;4971572;28;97114;-73
2021/08/30 08:13:50;;;;;;;;;;;;;;;21.44;59.86;101172.78;4970178;28;97707;-72
2021/08/30 08:16:17;;;;;;;;;;;;;;;21.15;60.56;101172.19;4974404;28;99074;-73
2021/08/30 08:18:43;;;;;;;;;;;;;;;21.48;59.97;101180.50;4971662;28;98437;-73
2021/08/30 08:21:09;;;;;;;;;;;;;;;21.31;60.38;101186.28;4968099;28;98758;-72
2021/08/30 08:23:37;;;;;;;;;;;;;;;22.19;58.16;101181.44;4970620;28;98851;-73
2021/08/30 08:26:04;;;;;;;;;;;;;;;22.42;57.59;101188.59;4969443;28;99101;-73
2021/08/30 08:28:32;;;;;;;;;;;;;;;22.39;57.69;101186.13;4970358;28;98597;-73
2021/08/30 08:30:58;;;;;;;;;;;;;;;22.00;57.77;101186.50;4971524;28;96895;-73
2021/08/30 08:33:25;;;;;;;;;;;;;;;21.50;59.80;101193.84;4970103;28;98964;-73
2021/08/30 08:35:51;;;;;;;;;;;;;;;21.31;60.62;101196.16;4960873;28;98887;-73
2021/08/30 08:38:17;;;;;;;;;;;;;;;20.89;62.36;101197.41;4972154;28;98287;-75
2021/08/30 08:40:45;;;;;;;;;;;;;;;21.27;61.34;101202.72;4969254;28;96969;-75
2021/08/30 08:43:12;;;;;;;;;;;;;;;21.53;60.10;101198.97;4960929;28;101035;-73
2021/08/30 08:45:38;;;;;;;;;;;;;;;21.01;60.77;101193.81;4971351;28;99131;-73
2021/08/30 08:48:04;;;;;;;;;;;;;;;21.46;58.53;101195.06;4975858;28;96655;-72
2021/08/30 08:50:31;;;;;;;;;;;;;;;21.05;60.19;101198.91;4971235;28;99274;-72
2021/08/30 08:52:58;;;;;;;;;;;;;;;21.32;59.02;101197.91;4975070;28;99267;-73
2021/08/30 08:55:24;;;;;;;;;;;;;;;21.38;58.40;101197.44;4971701;28;99626;-74
2021/08/30 08:57:52;;;;;;;;;;;;;;;21.20;59.51;101204.16;4974655;28;96953;-72
2021/08/30 09:00:20;;;;;;;;;;;;;;;21.63;57.93;101199.16;4972015;28;97142;-73
2021/08/30 09:02:49;;;;;;;;;;;;;;;21.81;57.37;101200.47;4970809;28;99249;-74
2021/08/30 09:05:22;;;;;;;;;;;;;;;22.75;55.33;101200.44;4973179;28;100790;-73
2021/08/30 09:07:49;;;;;;;;;;;;;;;23.02;54.47;101203.63;4970263;28;98261;-72
2021/08/30 09:10:16;;;;;;;;;;;;;;;22.70;55.78;101205.31;4974035;28;97029;-73
2021/08/30 09:12:44;;;;;;;;;;;;;;;22.35;56.44;101202.66;4971621;28;99415;-73
2021/08/30 09:15:12;;;;;;;;;;;;;;;22.21;56.54;101195.66;4971741;28;99912;-72
2021/08/30 09:17:40;;;;;;;;;;;;;;;22.23;56.82;101196.41;4972804;28;97213;-73
2021/08/30 09:20:07;;;;;;;;;;;;;;;22.36;56.86;101199.00;4972024;28;98369;-73
2021/08/30 09:22:34;;;;;;;;;;;;;;;21.80;58.32;101196.94;4970922;28;98896;-73
2021/08/30 09:25:05;;;;;;;;;;;;;;;22.29;57.59;101195.06;4974025;28;98931;-72
2021/08/30 09:27:34;;;;;;;;;;;;;;;22.31;57.41;101202.06;4975832;28;97514;-74
2021/08/30 09:30:02;;;;;;;;;;;;;;;22.60;56.60;101194.38;4977682;28;97038;-73
2021/08/30 09:32:32;;;;;;;;;;;;;;;22.54;56.43;101202.94;4968408;28;100316;-75
2021/08/30 09:35:01;;;;;;;;;;;;;;;22.05;57.68;101197.81;4968233;28;97993;-74
2021/08/30 09:37:27;;;;;;;;;;;;;;;22.09;58.21;101196.59;4971077;28;97257;-73
2021/08/30 09:39:56;;;;;;;;;;;;;;;21.99;58.88;101190.22;4972330;28;96898;-73
2021/08/30 09:42:23;;;;;;;;;;;;;;;22.11;58.81;101191.97;4971538;28;98920;-73
2021/08/30 09:44:50;;;;;;;;;;;;;;;22.67;56.40;101183.00;4968425;28;99283;-73
2021/08/30 09:47:18;;;;;;;;;;;;;;;22.46;57.48;101191.91;4970440;28;97250;-73
2021/08/30 09:49:49;;;;;;;;;;;;;;;22.31;57.77;101188.59;4971333;28;96994;-73
2021/08/30 09:52:16;;;;;;;;;;;;;;;22.23;57.62;101189.19;4973236;28;97698;-73
2021/08/30 09:54:42;;;;;;;;;;;;;;;22.34;58.01;101195.56;4972527;28;98928;-75
2021/08/30 09:57:09;;;;;;;;;;;;;;;22.21;58.36;101195.66;4973989;28;97367;-74
2021/08/30 09:59:37;;;;;;;;;;;;;;;22.25;58.45;101191.75;4973363;28;96847;-73
2021/08/30 10:02:04;;;;;;;;;;;;;;;22.06;59.07;101194.13;4971346;28;98126;-73
2021/08/30 10:04:30;;;;;;;;;;;;;;;21.99;59.19;101190.22;4970400;28;98067;-75
2021/08/30 10:06:58;;;;;;;;;;;;;;;22.15;59.57;101196.13;4967577;28;96934;-75
2021/08/30 10:09:26;;;;;;;;;;;;;;;21.60;60.50;101189.50;4973174;28;96885;-74
2021/08/30 10:11:55;;;;;;;;;;;;;;;21.65;60.95;101191.84;4967099;28;118376;-74
2021/08/30 10:14:23;;;;;;;;;;;;;;;21.91;60.51;101184.50;4972675;28;98837;-74
2021/08/30 10:16:50;;;;;;;;;;;;;;;22.23;59.27;101191.88;4972349;28;96831;-72
2021/08/30 10:19:25;;;;;;;;;;;;;;;21.81;60.38;101187.03;4966226;28;97187;-73
2021/08/30 10:21:51;;;;;;;;;;;;;;;22.38;58.89;101184.44;4975380;28;99405;-74
2021/08/30 10:24:18;;;;;;;;;;;;;;;22.47;58.69;101186.41;4984773;28;100279;-73
2021/08/30 10:26:48;;;;;;;;;;;;;;;22.47;58.39;101185.53;4975741;28;97103;-74
2021/08/30 10:29:15;;;;;;;;;;;;;;;21.98;59.58;101185.78;4971971;28;97052;-72
2021/08/30 10:31:46;;;;;;;;;;;;;;;22.57;58.51;101186.56;4966051;28;98949;-72
2021/08/30 10:34:21;;;;;;;;;;;;;;;21.94;60.20;101190.50;4966569;28;102314;-73
2021/08/30 10:36:48;;;;;;;;;;;;;;;21.80;61.15;101186.16;4972900;28;97271;-73
2021/08/30 10:39:14;;;;;;;;;;;;;;;22.11;60.40;101186.56;4968425;28;97005;-73
2021/08/30 10:41:44;;;;;;;;;;;;;;;22.05;60.91;101185.22;4972464;28;99163;-73
2021/08/30 10:44:12;;;;;;;;;;;;;;;22.45;59.60;101187.53;4968852;28;98744;-72
2021/08/30 10:46:41;;;;;;;;;;;;;;;22.89;58.53;101192.13;4970868;28;97130;-72
2021/08/30 10:49:11;;;;;;;;;;;;;;;22.65;59.12;101195.72;4968068;28;97434;-73
2021/08/30 10:51:38;;;;;;;;;;;;;;;22.44;59.92;101189.34;4968301;28;99026;-72
2021/08/30 10:54:07;;;;;;;;;;;;;;;21.98;60.85;101183.09;4971623;28;99409;-74
2021/08/30 10:56:33;;;;;;;;;;;;;;;21.65;62.29;101192.72;4968293;28;96907;-73
2021/08/30 10:59:06;;;;;;;;;;;;;;;22.57;60.35;101198.19;4966657;28;97517;-73
2021/08/30 11:01:33;;;;;;;;;;;;;;;22.96;59.43;101190.66;4972557;28;99356;-73
2021/08/30 11:04:00;;;;;;;;;;;;;;;22.43;60.29;101189.47;4968366;28;98928;-72
2021/08/30 11:06:26;;;;;;;;;;;;;;;22.74;59.01;101182.56;4963942;28;96959;-73
2021/08/30 11:08:53;;;;;;;;;;;;;;;22.18;61.53;101191.38;4972226;28;96815;-73
2021/08/30 11:11:20;;;;;;;;;;;;;;;22.18;60.92;101180.59;4971158;28;99072;-74
2021/08/30 11:13:58;;;;;;;;;;;;;;;22.28;60.31;101186.13;4971721;28;96799;-73
2021/08/30 11:16:26;;;;;;;;;;;;;;;22.15;61.53;101186.22;4969865;28;99019;-73
2021/08/30 11:18:53;;;;;;;;;;;;;;;22.08;61.43;101189.50;4970511;28;97813;-74
2021/08/30 11:21:30;;;;;;;;;;;;;;;22.21;60.93;101187.56;4971426;28;98952;-74
2021/08/30 11:23:56;;;;;;;;;;;;;;;22.07;61.59;101185.94;4971668;28;98881;-73
2021/08/30 11:26:23;;;;;;;;;;;;;;;22.31;60.46;101188.59;4971517;28;96876;-73
2021/08/30 11:28:53;;;;;;;;;;;;;;;22.57;60.23;101197.31;4972048;28;96980;-74
2021/08/30 11:31:21;;;;;;;;;;;;;;;22.50;60.27;101194.25;4972000;28;99489;-73
2021/08/30 11:33:49;;;;;;;;;;;;;;;22.83;59.05;101190.78;4966504;28;99689;-74
2021/08/30 11:36:16;;;;;;;;;;;;;;;23.25;58.75;101197.22;4974243;28;97204;-74
2021/08/30 11:38:50;;;;;;;;;;;;;;;23.75;57.01;101189.53;4968657;28;96976;-74
2021/08/30 11:41:17;;;;;;;;;;;;;;;23.89;57.15;101181.16;4971761;28;98878;-73
2021/08/30 11:43:43;;;;;;;;;;;;;;;24.32;55.10;101182.91;4975280;28;98822;-74
2021/08/30 11:46:10;;;;;;;;;;;;;;;23.51;57.36;101188.88;4968223;28;97135;-73
2021/08/30 11:48:36;;;;;;;;;;;;;;;23.72;57.47;101187.94;4973349;28;97303;-75
2021/08/30 11:51:05;;;;;;;;;;;;;;;23.34;57.91;101176.75;4969872;28;98915;-74
2021/08/30 11:53:31;;;;;;;;;;;;;;;23.82;57.11;101179.94;4966266;28;98874;-74
2021/08/30 11:55:58;;;;;;;;;;;;;;;23.81;56.84;101187.19;4967976;28;97767;-73
2021/08/30 11:58:24;;;;;;;;;;;;;;;;;;4968839;28;97220;-73
2021/08/30 12:01:00;;;;;;;;;;;;;;;24.34;55.77;101172.84;4970627;28;98471;-74
2021/08/30 12:03:26;;;;;;;;;;;;;;;24.78;54.50;101183.31;4970038;28;98837;-73
2021/08/30 12:05:54;;;;;;;;;;;;;;;23.92;56.21;101177.31;4967563;28;97733;-74
2021/08/30 12:08:22;;;;;;;;;;;;;;;24.27;55.09;101171.66;4970232;28;98819;-73
2021/08/30 12:10:49;;;;;;;;;;;;;;;23.91;56.52;101173.75;4968925;28;97348;-75
2021/08/30 12:15:59;;;;;;;;;;;;;;;23.16;57.53;101179.13;4974237;28;96858;-74
2021/08/30 12:18:26;;;;;;;;;;;;;;;23.22;58.24;101170.53;4968905;28;97362;-73
2021/08/30 12:20:56;;;;;;;;;;;;;;;23.76;57.21;101166.97;4970437;28;99127;-73
2021/08/30 12:23:24;;;;;;;;;;;;;;;23.99;56.24;101167.72;4972312;28;99058;-73
2021/08/30 12:25:52;;;;;;;;;;;;;;;23.31;58.21;101179.69;4974522;28;98090;-73
2021/08/30 12:28:18;;;;;;;;;;;;;;;23.10;58.91;101187.69;4975141;28;97140;-74
2021/08/30 12:30:45;;;;;;;;;;;;;;;22.94;59.93;101174.59;4975285;28;98874;-73
2021/08/30 12:33:15;;;;;;;;;;;;;;;22.62;60.02;101177.13;4976129;28;98812;-75
2021/08/30 12:35:43;;;;;;;;;;;;;;;22.92;59.93;101171.16;4973044;28;97005;-73
2021/08/30 12:38:11;;;;;;;;;;;;;;;23.04;58.49;101178.25;4976550;28;96894;-74
2021/08/30 12:40:39;;;;;;;;;;;;;;;22.68;60.05;101165.00;4975358;28;99253;-73
2021/08/30 12:43:06;;;;;;;;;;;;;;;23.32;57.61;101158.00;4975313;28;98929;-73